sensor_id;sensor_type;location;lat;lon;timestamp;temperature;humidity
4431;DHT22;2228;48.140;11.488;2023-06-10T00:00:08;17.10;1.00
4431;DHT22;2228;48.140;11.488;2023-06-10T00:02:39;17.10;1.00
4431;DHT22;2228;48.140;11.488;2023-06-10T00:05:07;17.00;1.00
4431;DHT22;2228;48.140;11.488;2023-06-10T00:07:35;17.00;1.00
4431;DHT22;2228;48.140;11.488;2023-06-10T00:10:04;17.00;1.00
4431;DHT22;2228;48.140;11.488;2023-06-10T00:12:31;16.90;1.00
4431;DHT22;2228;48.140;11.488;2023-06-10T00:15:03;16.90;1.00
4431;DHT22;2228;48.140;11.488;2023-06-10T00:17:30;16.80;1.00
4431;DHT22;2228;48.140;11.488;2023-06-10T00:19:59;16.80;1.00
4431;DHT22;2228;48.140;11.488;2023-06-10T00:22:30;16.70;1.00
4431;DHT22;2228;48.140;11.488;2023-06-10T00:24:57;16.70;1.00
4431;DHT22;2228;48.140;11.488;2023-06-10T00:27:24;16.60;1.00
4431;DHT22;2228;48.140;11.488;2023-06-10T00:29:56;16.60;1.00
4431;DHT22;2228;48.140;11.488;2023-06-10T00:32:23;16.60;1.00
4431;DHT22;2228;48.140;11.488;2023-06-10T00:34:50;16.50;1.00
4431;DHT22;2228;48.140;11.488;2023-06-10T00:37:18;16.50;1.00
4431;DHT22;2228;48.140;11.488;2023-06-10T00:39:46;16.50;1.00
4431;DHT22;2228;48.140;11.488;2023-06-10T00:42:13;16.40;1.00
4431;DHT22;2228;48.140;11.488;2023-06-10T00:44:40;16.40;1.00
4431;DHT22;2228;48.140;11.488;2023-06-10T00:47:07;16.30;1.00
4431;DHT22;2228;48.140;11.488;2023-06-10T00:49:35;16.20;1.00
4431;DHT22;2228;48.140;11.488;2023-06-10T00:52:04;16.10;1.00
4431;DHT22;2228;48.140;11.488;2023-06-10T00:54:33;16.10;1.00
4431;DHT22;2228;48.140;11.488;2023-06-10T00:57:01;16.10;1.00
4431;DHT22;2228;48.140;11.488;2023-06-10T00:59:29;16.10;1.00
4431;DHT22;2228;48.140;11.488;2023-06-10T01:01:56;16.00;1.00
4431;DHT22;2228;48.140;11.488;2023-06-10T01:04:23;16.00;1.00
4431;DHT22;2228;48.140;11.488;2023-06-10T01:06:54;16.00;1.00
4431;DHT22;2228;48.140;11.488;2023-06-10T01:09:30;16.00;1.00
4431;DHT22;2228;48.140;11.488;2023-06-10T01:12:05;16.00;1.00
4431;DHT22;2228;48.140;11.488;2023-06-10T01:14:35;16.00;1.00
4431;DHT22;2228;48.140;11.488;2023-06-10T01:17:04;16.00;1.00
4431;DHT22;2228;48.140;11.488;2023-06-10T01:19:32;15.90;1.00
4431;DHT22;2228;48.140;11.488;2023-06-10T01:22:00;15.90;1.00
4431;DHT22;2228;48.140;11.488;2023-06-10T01:24:27;15.80;1.00
4431;DHT22;2228;48.140;11.488;2023-06-10T01:27:00;15.80;1.00
4431;DHT22;2228;48.140;11.488;2023-06-10T01:29:32;15.80;1.00
4431;DHT22;2228;48.140;11.488;2023-06-10T01:32:05;15.90;1.00
4431;DHT22;2228;48.140;11.488;2023-06-10T01:34:33;15.70;1.00
4431;DHT22;2228;48.140;11.488;2023-06-10T01:37:02;15.70;1.00
4431;DHT22;2228;48.140;11.488;2023-06-10T01:39:31;15.70;1.00
4431;DHT22;2228;48.140;11.488;2023-06-10T01:41:59;15.70;1.00
4431;DHT22;2228;48.140;11.488;2023-06-10T01:44:27;15.60;1.00
4431;DHT22;2228;48.140;11.488;2023-06-10T01:46:54;15.60;1.00
4431;DHT22;2228;48.140;11.488;2023-06-10T01:49:21;15.60;1.00
4431;DHT22;2228;48.140;11.488;2023-06-10T01:51:49;15.60;1.00
4431;DHT22;2228;48.140;11.488;2023-06-10T01:54:17;15.50;1.00
4431;DHT22;2228;48.140;11.488;2023-06-10T01:56:44;15.60;1.00
4431;DHT22;2228;48.140;11.488;2023-06-10T01:59:11;15.50;1.00
4431;DHT22;2228;48.140;11.488;2023-06-10T02:01:38;15.50;1.00
4431;DHT22;2228;48.140;11.488;2023-06-10T02:04:05;15.50;1.00
4431;DHT22;2228;48.140;11.488;2023-06-10T02:06:32;15.50;1.00
4431;DHT22;2228;48.140;11.488;2023-06-10T02:09:00;15.50;1.00
4431;DHT22;2228;48.140;11.488;2023-06-10T02:11:28;15.50;1.00
4431;DHT22;2228;48.140;11.488;2023-06-10T02:13:55;15.40;1.00
4431;DHT22;2228;48.140;11.488;2023-06-10T02:16:22;15.40;1.00
4431;DHT22;2228;48.140;11.488;2023-06-10T02:18:49;15.30;11.20
4431;DHT22;2228;48.140;11.488;2023-06-10T02:21:16;15.30;6.90
4431;DHT22;2228;48.140;11.488;2023-06-10T02:23:43;15.20;68.10
4431;DHT22;2228;48.140;11.488;2023-06-10T02:26:10;15.20;72.80
4431;DHT22;2228;48.140;11.488;2023-06-10T02:28:38;15.20;63.30
4431;DHT22;2228;48.140;11.488;2023-06-10T02:31:05;15.20;89.40
4431;DHT22;2228;48.140;11.488;2023-06-10T02:33:32;15.10;99.90
4431;DHT22;2228;48.140;11.488;2023-06-10T02:35:59;15.20;99.90
4431;DHT22;2228;48.140;11.488;2023-06-10T02:38:26;15.10;99.90
4431;DHT22;2228;48.140;11.488;2023-06-10T02:40:53;15.10;99.90
4431;DHT22;2228;48.140;11.488;2023-06-10T02:43:20;15.00;99.90
4431;DHT22;2228;48.140;11.488;2023-06-10T02:45:48;14.90;99.90
4431;DHT22;2228;48.140;11.488;2023-06-10T02:48:15;14.80;99.90
4431;DHT22;2228;48.140;11.488;2023-06-10T02:50:42;14.60;99.90
4431;DHT22;2228;48.140;11.488;2023-06-10T02:53:09;14.60;99.90
4431;DHT22;2228;48.140;11.488;2023-06-10T02:55:36;14.80;99.90
4431;DHT22;2228;48.140;11.488;2023-06-10T02:58:03;14.80;99.90
4431;DHT22;2228;48.140;11.488;2023-06-10T03:00:31;14.90;99.90
4431;DHT22;2228;48.140;11.488;2023-06-10T03:02:59;14.90;99.90
4431;DHT22;2228;48.140;11.488;2023-06-10T03:05:29;14.90;99.90
4431;DHT22;2228;48.140;11.488;2023-06-10T03:07:56;14.90;99.90
4431;DHT22;2228;48.140;11.488;2023-06-10T03:10:22;14.90;99.90
4431;DHT22;2228;48.140;11.488;2023-06-10T03:12:49;14.90;99.90
4431;DHT22;2228;48.140;11.488;2023-06-10T03:15:16;14.90;99.90
4431;DHT22;2228;48.140;11.488;2023-06-10T03:17:43;14.80;99.90
4431;DHT22;2228;48.140;11.488;2023-06-10T03:20:12;14.70;99.90
4431;DHT22;2228;48.140;11.488;2023-06-10T03:22:41;14.70;99.90
4431;DHT22;2228;48.140;11.488;2023-06-10T03:25:08;14.70;99.90
4431;DHT22;2228;48.140;11.488;2023-06-10T03:27:39;14.70;99.90
4431;DHT22;2228;48.140;11.488;2023-06-10T03:30:07;14.80;99.90
4431;DHT22;2228;48.140;11.488;2023-06-10T03:32:34;14.70;99.90
4431;DHT22;2228;48.140;11.488;2023-06-10T03:35:02;14.70;99.90
4431;DHT22;2228;48.140;11.488;2023-06-10T03:37:30;14.80;99.90
4431;DHT22;2228;48.140;11.488;2023-06-10T03:39:57;14.90;99.90
4431;DHT22;2228;48.140;11.488;2023-06-10T03:42:24;14.90;99.90
4431;DHT22;2228;48.140;11.488;2023-06-10T03:44:51;14.80;99.90
4431;DHT22;2228;48.140;11.488;2023-06-10T03:47:18;14.80;99.90
4431;DHT22;2228;48.140;11.488;2023-06-10T03:49:45;14.70;99.90
4431;DHT22;2228;48.140;11.488;2023-06-10T03:52:12;14.70;99.90
4431;DHT22;2228;48.140;11.488;2023-06-10T03:54:40;14.80;99.90
4431;DHT22;2228;48.140;11.488;2023-06-10T03:57:07;14.80;99.90
4431;DHT22;2228;48.140;11.488;2023-06-10T03:59:33;14.80;99.90
4431;DHT22;2228;48.140;11.488;2023-06-10T04:02:00;14.90;99.90
4431;DHT22;2228;48.140;11.488;2023-06-10T04:04:27;14.90;99.90
4431;DHT22;2228;48.140;11.488;2023-06-10T04:06:54;15.00;99.90
4431;DHT22;2228;48.140;11.488;2023-06-10T04:09:21;15.10;99.90
4431;DHT22;2228;48.140;11.488;2023-06-10T04:11:49;15.20;99.90
4431;DHT22;2228;48.140;11.488;2023-06-10T04:14:16;15.20;99.90
4431;DHT22;2228;48.140;11.488;2023-06-10T04:16:43;15.20;99.90
4431;DHT22;2228;48.140;11.488;2023-06-10T04:19:10;15.30;99.90
4431;DHT22;2228;48.140;11.488;2023-06-10T04:21:37;15.30;99.90
4431;DHT22;2228;48.140;11.488;2023-06-10T04:24:04;15.40;99.90
4431;DHT22;2228;48.140;11.488;2023-06-10T04:26:31;15.40;99.90
4431;DHT22;2228;48.140;11.488;2023-06-10T04:29:00;15.50;99.90
4431;DHT22;2228;48.140;11.488;2023-06-10T04:31:27;15.50;99.90
4431;DHT22;2228;48.140;11.488;2023-06-10T04:33:54;15.70;99.90
4431;DHT22;2228;48.140;11.488;2023-06-10T04:36:21;15.80;92.00
4431;DHT22;2228;48.140;11.488;2023-06-10T04:38:49;16.00;45.70
4431;DHT22;2228;48.140;11.488;2023-06-10T04:41:17;16.10;14.10
4431;DHT22;2228;48.140;11.488;2023-06-10T04:43:45;16.20;1.00
4431;DHT22;2228;48.140;11.488;2023-06-10T04:46:13;16.30;1.00
4431;DHT22;2228;48.140;11.488;2023-06-10T04:48:40;16.30;1.00
4431;DHT22;2228;48.140;11.488;2023-06-10T04:51:07;16.30;1.00
4431;DHT22;2228;48.140;11.488;2023-06-10T04:53:34;16.40;1.00
4431;DHT22;2228;48.140;11.488;2023-06-10T04:56:02;16.50;1.00
4431;DHT22;2228;48.140;11.488;2023-06-10T04:58:28;16.60;1.00
4431;DHT22;2228;48.140;11.488;2023-06-10T05:00:55;16.70;1.00
4431;DHT22;2228;48.140;11.488;2023-06-10T05:03:24;16.70;1.00
4431;DHT22;2228;48.140;11.488;2023-06-10T05:05:50;16.90;1.00
4431;DHT22;2228;48.140;11.488;2023-06-10T05:08:20;17.00;1.00
4431;DHT22;2228;48.140;11.488;2023-06-10T05:10:47;17.20;1.00
4431;DHT22;2228;48.140;11.488;2023-06-10T05:13:14;17.40;1.00
4431;DHT22;2228;48.140;11.488;2023-06-10T05:15:40;17.40;1.00
4431;DHT22;2228;48.140;11.488;2023-06-10T05:18:10;17.50;1.00
4431;DHT22;2228;48.140;11.488;2023-06-10T05:20:38;17.50;1.00
4431;DHT22;2228;48.140;11.488;2023-06-10T05:23:05;17.70;1.00
4431;DHT22;2228;48.140;11.488;2023-06-10T05:25:33;17.80;1.00
4431;DHT22;2228;48.140;11.488;2023-06-10T05:28:00;18.10;1.00
4431;DHT22;2228;48.140;11.488;2023-06-10T05:30:27;18.10;1.00
4431;DHT22;2228;48.140;11.488;2023-06-10T05:32:54;18.20;1.00
4431;DHT22;2228;48.140;11.488;2023-06-10T05:35:22;18.30;1.00
4431;DHT22;2228;48.140;11.488;2023-06-10T05:37:50;18.50;1.00
4431;DHT22;2228;48.140;11.488;2023-06-10T05:40:17;18.60;1.00
4431;DHT22;2228;48.140;11.488;2023-06-10T05:42:44;18.80;1.00
4431;DHT22;2228;48.140;11.488;2023-06-10T05:45:11;18.90;1.00
4431;DHT22;2228;48.140;11.488;2023-06-10T05:47:38;19.00;1.00
4431;DHT22;2228;48.140;11.488;2023-06-10T05:50:06;19.20;1.00
4431;DHT22;2228;48.140;11.488;2023-06-10T05:52:34;19.30;1.00
4431;DHT22;2228;48.140;11.488;2023-06-10T05:55:02;19.50;1.00
4431;DHT22;2228;48.140;11.488;2023-06-10T05:57:29;19.60;1.00
4431;DHT22;2228;48.140;11.488;2023-06-10T05:59:56;19.70;1.00
4431;DHT22;2228;48.140;11.488;2023-06-10T06:02:23;19.70;1.00
4431;DHT22;2228;48.140;11.488;2023-06-10T06:04:50;19.60;1.00
4431;DHT22;2228;48.140;11.488;2023-06-10T06:07:17;19.70;1.00
4431;DHT22;2228;48.140;11.488;2023-06-10T06:09:46;19.90;1.00
4431;DHT22;2228;48.140;11.488;2023-06-10T06:12:14;20.10;1.00
4431;DHT22;2228;48.140;11.488;2023-06-10T06:14:41;20.30;1.00
4431;DHT22;2228;48.140;11.488;2023-06-10T06:17:08;20.50;1.00
4431;DHT22;2228;48.140;11.488;2023-06-10T06:19:35;20.40;1.00
4431;DHT22;2228;48.140;11.488;2023-06-10T06:22:02;20.30;1.00
4431;DHT22;2228;48.140;11.488;2023-06-10T06:24:29;20.40;1.00
4431;DHT22;2228;48.140;11.488;2023-06-10T06:26:56;20.50;1.00
4431;DHT22;2228;48.140;11.488;2023-06-10T06:29:24;20.80;1.00
4431;DHT22;2228;48.140;11.488;2023-06-10T06:31:51;21.00;1.00
4431;DHT22;2228;48.140;11.488;2023-06-10T06:34:18;21.00;1.00
4431;DHT22;2228;48.140;11.488;2023-06-10T06:36:45;21.10;1.00
4431;DHT22;2228;48.140;11.488;2023-06-10T06:39:12;21.20;1.00
4431;DHT22;2228;48.140;11.488;2023-06-10T06:41:39;21.30;1.00
4431;DHT22;2228;48.140;11.488;2023-06-10T06:44:06;21.40;1.00
4431;DHT22;2228;48.140;11.488;2023-06-10T06:46:34;21.20;1.00
4431;DHT22;2228;48.140;11.488;2023-06-10T06:49:01;21.10;1.00
4431;DHT22;2228;48.140;11.488;2023-06-10T06:51:28;21.10;1.00
4431;DHT22;2228;48.140;11.488;2023-06-10T06:53:55;21.10;1.00
4431;DHT22;2228;48.140;11.488;2023-06-10T06:56:24;21.30;1.00
4431;DHT22;2228;48.140;11.488;2023-06-10T06:58:52;21.40;1.00
4431;DHT22;2228;48.140;11.488;2023-06-10T07:01:19;21.60;1.00
4431;DHT22;2228;48.140;11.488;2023-06-10T07:03:48;21.70;1.00
4431;DHT22;2228;48.140;11.488;2023-06-10T07:06:14;21.90;1.00
4431;DHT22;2228;48.140;11.488;2023-06-10T07:08:41;22.30;1.00
4431;DHT22;2228;48.140;11.488;2023-06-10T07:11:12;22.50;1.00
4431;DHT22;2228;48.140;11.488;2023-06-10T07:13:41;22.70;1.00
4431;DHT22;2228;48.140;11.488;2023-06-10T07:16:08;22.70;1.00
4431;DHT22;2228;48.140;11.488;2023-06-10T07:18:35;23.10;1.00
4431;DHT22;2228;48.140;11.488;2023-06-10T07:21:05;23.20;1.00
4431;DHT22;2228;48.140;11.488;2023-06-10T07:23:32;23.30;1.00
4431;DHT22;2228;48.140;11.488;2023-06-10T07:25:59;23.30;1.00
4431;DHT22;2228;48.140;11.488;2023-06-10T07:28:26;23.20;99.90
4431;DHT22;2228;48.140;11.488;2023-06-10T07:30:53;23.30;99.90
4431;DHT22;2228;48.140;11.488;2023-06-10T07:33:20;23.30;99.90
4431;DHT22;2228;48.140;11.488;2023-06-10T07:35:47;23.50;99.90
4431;DHT22;2228;48.140;11.488;2023-06-10T07:38:17;23.60;99.90
4431;DHT22;2228;48.140;11.488;2023-06-10T07:40:44;23.80;99.90
4431;DHT22;2228;48.140;11.488;2023-06-10T07:43:11;23.70;99.90
4431;DHT22;2228;48.140;11.488;2023-06-10T07:45:39;23.90;99.90
4431;DHT22;2228;48.140;11.488;2023-06-10T07:48:10;24.00;99.90
4431;DHT22;2228;48.140;11.488;2023-06-10T07:50:37;24.10;99.90
4431;DHT22;2228;48.140;11.488;2023-06-10T07:53:04;24.40;99.90
4431;DHT22;2228;48.140;11.488;2023-06-10T07:55:33;24.60;99.90
4431;DHT22;2228;48.140;11.488;2023-06-10T07:58:00;24.30;99.90
4431;DHT22;2228;48.140;11.488;2023-06-10T08:00:28;24.20;99.90
4431;DHT22;2228;48.140;11.488;2023-06-10T08:02:54;24.10;99.90
4431;DHT22;2228;48.140;11.488;2023-06-10T08:05:21;24.40;99.90
4431;DHT22;2228;48.140;11.488;2023-06-10T08:07:48;24.70;99.90
4431;DHT22;2228;48.140;11.488;2023-06-10T08:10:15;24.90;99.90
4431;DHT22;2228;48.140;11.488;2023-06-10T08:12:46;25.00;99.90
4431;DHT22;2228;48.140;11.488;2023-06-10T08:15:14;25.50;99.90
4431;DHT22;2228;48.140;11.488;2023-06-10T08:17:41;25.90;99.90
4431;DHT22;2228;48.140;11.488;2023-06-10T08:20:10;26.40;99.90
4431;DHT22;2228;48.140;11.488;2023-06-10T08:22:38;26.90;99.90
4431;DHT22;2228;48.140;11.488;2023-06-10T08:25:05;26.80;99.90
4431;DHT22;2228;48.140;11.488;2023-06-10T08:27:32;26.60;99.90
4431;DHT22;2228;48.140;11.488;2023-06-10T08:30:01;26.70;99.90
4431;DHT22;2228;48.140;11.488;2023-06-10T08:32:29;27.20;99.90
4431;DHT22;2228;48.140;11.488;2023-06-10T08:34:56;27.50;99.90
4431;DHT22;2228;48.140;11.488;2023-06-10T08:37:24;27.80;99.90
4431;DHT22;2228;48.140;11.488;2023-06-10T08:39:51;28.00;99.90
4431;DHT22;2228;48.140;11.488;2023-06-10T08:42:23;28.30;99.90
4431;DHT22;2228;48.140;11.488;2023-06-10T08:44:53;28.40;99.90
4431;DHT22;2228;48.140;11.488;2023-06-10T08:47:23;27.90;99.90
4431;DHT22;2228;48.140;11.488;2023-06-10T08:49:51;28.20;99.90
4431;DHT22;2228;48.140;11.488;2023-06-10T08:52:20;28.50;99.90
4431;DHT22;2228;48.140;11.488;2023-06-10T08:54:49;28.80;99.90
4431;DHT22;2228;48.140;11.488;2023-06-10T08:57:19;29.00;99.90
4431;DHT22;2228;48.140;11.488;2023-06-10T09:00:01;29.90;99.90
4431;DHT22;2228;48.140;11.488;2023-06-10T09:03:09;30.50;99.90
4431;DHT22;2228;48.140;11.488;2023-06-10T09:05:37;29.70;99.90
4431;DHT22;2228;48.140;11.488;2023-06-10T09:08:07;28.10;99.90
4431;DHT22;2228;48.140;11.488;2023-06-10T09:10:34;27.70;99.90
4431;DHT22;2228;48.140;11.488;2023-06-10T09:13:01;27.20;99.90
4431;DHT22;2228;48.140;11.488;2023-06-10T09:15:28;27.40;99.90
4431;DHT22;2228;48.140;11.488;2023-06-10T09:17:55;27.30;99.90
4431;DHT22;2228;48.140;11.488;2023-06-10T09:20:23;27.20;99.90
4431;DHT22;2228;48.140;11.488;2023-06-10T09:22:51;27.30;99.90
4431;DHT22;2228;48.140;11.488;2023-06-10T09:25:18;28.00;99.90
4431;DHT22;2228;48.140;11.488;2023-06-10T09:27:46;28.80;99.90
4431;DHT22;2228;48.140;11.488;2023-06-10T09:30:25;29.50;99.90
4431;DHT22;2228;48.140;11.488;2023-06-10T09:32:53;29.80;99.90
4431;DHT22;2228;48.140;11.488;2023-06-10T09:35:23;29.30;99.90
4431;DHT22;2228;48.140;11.488;2023-06-10T09:37:52;28.60;99.90
4431;DHT22;2228;48.140;11.488;2023-06-10T09:40:19;28.00;99.90
4431;DHT22;2228;48.140;11.488;2023-06-10T09:42:46;27.50;99.90
4431;DHT22;2228;48.140;11.488;2023-06-10T09:45:19;27.50;99.90
4431;DHT22;2228;48.140;11.488;2023-06-10T09:47:46;27.90;99.90
4431;DHT22;2228;48.140;11.488;2023-06-10T09:50:13;28.80;99.90
4431;DHT22;2228;48.140;11.488;2023-06-10T09:52:41;30.10;99.90
4431;DHT22;2228;48.140;11.488;2023-06-10T09:55:09;31.30;99.90
4431;DHT22;2228;48.140;11.488;2023-06-10T09:57:36;31.50;99.90
4431;DHT22;2228;48.140;11.488;2023-06-10T10:00:05;32.10;99.90
4431;DHT22;2228;48.140;11.488;2023-06-10T10:02:44;32.40;99.90
4431;DHT22;2228;48.140;11.488;2023-06-10T10:05:12;32.70;99.90
4431;DHT22;2228;48.140;11.488;2023-06-10T10:07:41;32.80;99.90
4431;DHT22;2228;48.140;11.488;2023-06-10T10:10:08;32.50;99.90
4431;DHT22;2228;48.140;11.488;2023-06-10T10:12:36;31.70;99.90
4431;DHT22;2228;48.140;11.488;2023-06-10T10:15:06;31.00;99.90
4431;DHT22;2228;48.140;11.488;2023-06-10T10:17:34;30.40;99.90
4431;DHT22;2228;48.140;11.488;2023-06-10T10:20:05;29.90;99.90
4431;DHT22;2228;48.140;11.488;2023-06-10T10:22:37;29.50;99.90
4431;DHT22;2228;48.140;11.488;2023-06-10T10:25:10;29.10;99.90
4431;DHT22;2228;48.140;11.488;2023-06-10T10:27:43;29.00;99.90
4431;DHT22;2228;48.140;11.488;2023-06-10T10:30:11;29.90;99.90
4431;DHT22;2228;48.140;11.488;2023-06-10T10:32:43;30.90;99.90
4431;DHT22;2228;48.140;11.488;2023-06-10T10:35:14;31.40;99.90
4431;DHT22;2228;48.140;11.488;2023-06-10T10:37:43;31.60;99.90
4431;DHT22;2228;48.140;11.488;2023-06-10T10:40:12;30.90;99.90
4431;DHT22;2228;48.140;11.488;2023-06-10T10:42:41;30.80;99.90
4431;DHT22;2228;48.140;11.488;2023-06-10T10:45:09;32.00;99.90
4431;DHT22;2228;48.140;11.488;2023-06-10T10:47:36;33.10;99.90
4431;DHT22;2228;48.140;11.488;2023-06-10T10:50:15;34.40;99.90
4431;DHT22;2228;48.140;11.488;2023-06-10T10:52:53;35.10;99.90
4431;DHT22;2228;48.140;11.488;2023-06-10T10:55:24;36.00;99.90
4431;DHT22;2228;48.140;11.488;2023-06-10T10:57:55;36.80;99.90
4431;DHT22;2228;48.140;11.488;2023-06-10T11:00:29;37.20;99.90
4431;DHT22;2228;48.140;11.488;2023-06-10T11:03:05;37.80;99.90
4431;DHT22;2228;48.140;11.488;2023-06-10T11:05:37;38.50;99.90
4431;DHT22;2228;48.140;11.488;2023-06-10T11:08:05;38.40;99.90
4431;DHT22;2228;48.140;11.488;2023-06-10T11:10:35;35.80;99.90
4431;DHT22;2228;48.140;11.488;2023-06-10T11:13:07;34.30;99.90
4431;DHT22;2228;48.140;11.488;2023-06-10T11:15:38;33.20;99.90
4431;DHT22;2228;48.140;11.488;2023-06-10T11:18:14;32.60;99.90
4431;DHT22;2228;48.140;11.488;2023-06-10T11:20:51;31.90;99.90
4431;DHT22;2228;48.140;11.488;2023-06-10T11:23:39;31.30;99.90
4431;DHT22;2228;48.140;11.488;2023-06-10T11:26:29;31.70;99.90
4431;DHT22;2228;48.140;11.488;2023-06-10T11:29:04;31.40;99.90
4431;DHT22;2228;48.140;11.488;2023-06-10T11:31:31;31.30;99.90
4431;DHT22;2228;48.140;11.488;2023-06-10T11:34:00;31.40;99.90
4431;DHT22;2228;48.140;11.488;2023-06-10T11:36:29;31.40;99.90
4431;DHT22;2228;48.140;11.488;2023-06-10T11:38:57;30.60;99.90
4431;DHT22;2228;48.140;11.488;2023-06-10T11:41:27;29.70;99.90
4431;DHT22;2228;48.140;11.488;2023-06-10T11:43:55;29.00;99.90
4431;DHT22;2228;48.140;11.488;2023-06-10T11:46:22;28.50;99.90
4431;DHT22;2228;48.140;11.488;2023-06-10T11:48:50;29.20;99.90
4431;DHT22;2228;48.140;11.488;2023-06-10T11:51:18;29.80;99.90
4431;DHT22;2228;48.140;11.488;2023-06-10T11:53:45;30.20;99.90
4431;DHT22;2228;48.140;11.488;2023-06-10T11:56:12;30.20;99.90
4431;DHT22;2228;48.140;11.488;2023-06-10T11:58:43;29.90;99.90
4431;DHT22;2228;48.140;11.488;2023-06-10T12:01:19;30.00;99.90
4431;DHT22;2228;48.140;11.488;2023-06-10T12:03:47;29.90;99.90
4431;DHT22;2228;48.140;11.488;2023-06-10T12:06:14;30.20;99.90
4431;DHT22;2228;48.140;11.488;2023-06-10T12:08:42;30.90;99.90
4431;DHT22;2228;48.140;11.488;2023-06-10T12:11:10;31.70;99.90
4431;DHT22;2228;48.140;11.488;2023-06-10T12:13:37;32.50;99.90
4431;DHT22;2228;48.140;11.488;2023-06-10T12:16:14;33.40;99.90
4431;DHT22;2228;48.140;11.488;2023-06-10T12:18:43;33.90;99.90
4431;DHT22;2228;48.140;11.488;2023-06-10T12:21:20;33.90;99.90
4431;DHT22;2228;48.140;11.488;2023-06-10T12:24:07;34.10;99.90
4431;DHT22;2228;48.140;11.488;2023-06-10T12:26:38;34.00;99.90
4431;DHT22;2228;48.140;11.488;2023-06-10T12:29:19;33.50;99.90
4431;DHT22;2228;48.140;11.488;2023-06-10T12:32:00;32.50;99.90
4431;DHT22;2228;48.140;11.488;2023-06-10T12:34:36;32.80;99.90
4431;DHT22;2228;48.140;11.488;2023-06-10T12:37:05;33.40;99.90
4431;DHT22;2228;48.140;11.488;2023-06-10T12:39:32;33.40;99.90
4431;DHT22;2228;48.140;11.488;2023-06-10T12:42:00;33.60;99.90
4431;DHT22;2228;48.140;11.488;2023-06-10T12:44:32;34.30;99.90
4431;DHT22;2228;48.140;11.488;2023-06-10T12:47:01;34.20;99.90
4431;DHT22;2228;48.140;11.488;2023-06-10T12:49:33;33.60;99.90
4431;DHT22;2228;48.140;11.488;2023-06-10T12:52:00;33.60;99.90
4431;DHT22;2228;48.140;11.488;2023-06-10T12:54:27;34.20;99.90
4431;DHT22;2228;48.140;11.488;2023-06-10T12:56:54;35.30;99.90
4431;DHT22;2228;48.140;11.488;2023-06-10T12:59:21;35.90;99.90
4431;DHT22;2228;48.140;11.488;2023-06-10T13:01:53;35.70;99.90
4431;DHT22;2228;48.140;11.488;2023-06-10T13:04:21;36.20;99.90
4431;DHT22;2228;48.140;11.488;2023-06-10T13:06:48;35.50;99.90
4431;DHT22;2228;48.140;11.488;2023-06-10T13:09:15;34.90;99.90
4431;DHT22;2228;48.140;11.488;2023-06-10T13:11:43;35.10;99.90
4431;DHT22;2228;48.140;11.488;2023-06-10T13:14:10;35.50;99.90
4431;DHT22;2228;48.140;11.488;2023-06-10T13:16:37;34.70;99.90
4431;DHT22;2228;48.140;11.488;2023-06-10T13:19:05;34.80;99.90
4431;DHT22;2228;48.140;11.488;2023-06-10T13:21:33;35.10;99.90
4431;DHT22;2228;48.140;11.488;2023-06-10T13:24:01;34.80;99.90
4431;DHT22;2228;48.140;11.488;2023-06-10T13:26:29;35.00;99.90
4431;DHT22;2228;48.140;11.488;2023-06-10T13:28:56;35.70;99.90
4431;DHT22;2228;48.140;11.488;2023-06-10T13:31:23;36.10;99.90
4431;DHT22;2228;48.140;11.488;2023-06-10T13:33:50;35.90;99.90
4431;DHT22;2228;48.140;11.488;2023-06-10T13:36:17;36.60;99.90
4431;DHT22;2228;48.140;11.488;2023-06-10T13:38:45;37.10;99.90
4431;DHT22;2228;48.140;11.488;2023-06-10T13:41:13;37.50;99.90
4431;DHT22;2228;48.140;11.488;2023-06-10T13:43:40;38.10;99.90
4431;DHT22;2228;48.140;11.488;2023-06-10T13:46:07;38.10;99.90
4431;DHT22;2228;48.140;11.488;2023-06-10T13:48:34;37.30;99.90
4431;DHT22;2228;48.140;11.488;2023-06-10T13:51:02;36.10;99.90
4431;DHT22;2228;48.140;11.488;2023-06-10T13:53:29;35.00;99.90
4431;DHT22;2228;48.140;11.488;2023-06-10T13:55:57;33.50;99.90
4431;DHT22;2228;48.140;11.488;2023-06-10T13:58:24;33.30;99.90
4431;DHT22;2228;48.140;11.488;2023-06-10T14:00:52;34.20;99.90
4431;DHT22;2228;48.140;11.488;2023-06-10T14:03:20;35.30;99.90
4431;DHT22;2228;48.140;11.488;2023-06-10T14:05:47;35.00;99.90
4431;DHT22;2228;48.140;11.488;2023-06-10T14:08:14;34.00;99.90
4431;DHT22;2228;48.140;11.488;2023-06-10T14:10:40;34.40;99.90
4431;DHT22;2228;48.140;11.488;2023-06-10T14:13:09;34.60;99.90
4431;DHT22;2228;48.140;11.488;2023-06-10T14:15:36;33.70;99.90
4431;DHT22;2228;48.140;11.488;2023-06-10T14:18:04;33.40;99.90
4431;DHT22;2228;48.140;11.488;2023-06-10T14:20:31;33.60;99.90
4431;DHT22;2228;48.140;11.488;2023-06-10T14:22:58;33.00;99.90
4431;DHT22;2228;48.140;11.488;2023-06-10T14:25:25;33.10;99.90
4431;DHT22;2228;48.140;11.488;2023-06-10T14:27:52;34.00;99.90
4431;DHT22;2228;48.140;11.488;2023-06-10T14:30:20;35.00;99.90
4431;DHT22;2228;48.140;11.488;2023-06-10T14:32:47;36.00;99.90
4431;DHT22;2228;48.140;11.488;2023-06-10T14:35:14;36.30;99.90
4431;DHT22;2228;48.140;11.488;2023-06-10T14:37:41;36.30;99.90
4431;DHT22;2228;48.140;11.488;2023-06-10T14:40:09;35.30;99.90
4431;DHT22;2228;48.140;11.488;2023-06-10T14:42:36;35.60;99.90
4431;DHT22;2228;48.140;11.488;2023-06-10T14:45:05;35.20;99.90
4431;DHT22;2228;48.140;11.488;2023-06-10T14:47:33;35.50;99.90
4431;DHT22;2228;48.140;11.488;2023-06-10T14:50:01;36.20;99.90
4431;DHT22;2228;48.140;11.488;2023-06-10T14:52:32;36.60;99.90
4431;DHT22;2228;48.140;11.488;2023-06-10T14:55:01;36.50;99.90
4431;DHT22;2228;48.140;11.488;2023-06-10T14:57:28;36.80;99.90
4431;DHT22;2228;48.140;11.488;2023-06-10T14:59:58;37.40;99.90
4431;DHT22;2228;48.140;11.488;2023-06-10T15:02:26;38.10;99.90
4431;DHT22;2228;48.140;11.488;2023-06-10T15:04:55;37.70;99.90
4431;DHT22;2228;48.140;11.488;2023-06-10T15:07:22;37.60;99.90
4431;DHT22;2228;48.140;11.488;2023-06-10T15:09:49;37.50;99.90
4431;DHT22;2228;48.140;11.488;2023-06-10T15:12:19;37.20;99.90
4431;DHT22;2228;48.140;11.488;2023-06-10T15:14:46;37.30;99.90
4431;DHT22;2228;48.140;11.488;2023-06-10T15:17:13;38.20;99.90
4431;DHT22;2228;48.140;11.488;2023-06-10T15:19:40;38.40;99.90
4431;DHT22;2228;48.140;11.488;2023-06-10T15:22:09;38.70;99.90
4431;DHT22;2228;48.140;11.488;2023-06-10T15:24:37;39.30;99.90
4431;DHT22;2228;48.140;11.488;2023-06-10T15:27:04;38.80;99.90
4431;DHT22;2228;48.140;11.488;2023-06-10T15:29:32;38.20;99.90
4431;DHT22;2228;48.140;11.488;2023-06-10T15:31:59;38.30;99.90
4431;DHT22;2228;48.140;11.488;2023-06-10T15:34:27;38.80;99.90
4431;DHT22;2228;48.140;11.488;2023-06-10T15:36:56;39.00;99.90
4431;DHT22;2228;48.140;11.488;2023-06-10T15:39:24;38.90;99.90
4431;DHT22;2228;48.140;11.488;2023-06-10T15:41:52;36.70;99.90
4431;DHT22;2228;48.140;11.488;2023-06-10T15:44:20;35.90;99.90
4431;DHT22;2228;48.140;11.488;2023-06-10T15:46:48;36.10;99.90
4431;DHT22;2228;48.140;11.488;2023-06-10T15:49:16;36.40;99.90
4431;DHT22;2228;48.140;11.488;2023-06-10T15:51:43;36.90;99.90
4431;DHT22;2228;48.140;11.488;2023-06-10T15:54:10;36.70;99.90
4431;DHT22;2228;48.140;11.488;2023-06-10T15:56:38;36.20;99.90